sensor_id;sensor_type;location;lat;lon;timestamp;temperature;humidity
9776;DHT22;4927;52.472;13.108;2024-03-22T00:00:06;6.70;99.90
9776;DHT22;4927;52.472;13.108;2024-03-22T00:01:08;6.70;99.90
9776;DHT22;4927;52.472;13.108;2024-03-22T00:02:10;7.30;99.90
9776;DHT22;4927;52.472;13.108;2024-03-22T00:03:11;6.60;99.90
9776;DHT22;4927;52.472;13.108;2024-03-22T00:04:14;6.70;99.90
9776;DHT22;4927;52.472;13.108;2024-03-22T00:05:16;6.70;99.90
9776;DHT22;4927;52.472;13.108;2024-03-22T00:06:18;6.70;99.90
9776;DHT22;4927;52.472;13.108;2024-03-22T00:07:19;6.70;99.90
9776;DHT22;4927;52.472;13.108;2024-03-22T00:08:21;6.60;99.90
9776;DHT22;4927;52.472;13.108;2024-03-22T00:09:22;6.70;99.90
9776;DHT22;4927;52.472;13.108;2024-03-22T00:10:24;6.70;99.90
9776;DHT22;4927;52.472;13.108;2024-03-22T00:11:25;6.70;99.90
9776;DHT22;4927;52.472;13.108;2024-03-22T00:12:27;6.70;99.90
9776;DHT22;4927;52.472;13.108;2024-03-22T00:13:28;6.70;99.90
9776;DHT22;4927;52.472;13.108;2024-03-22T00:14:30;6.70;99.90
9776;DHT22;4927;52.472;13.108;2024-03-22T00:15:32;6.70;99.90
9776;DHT22;4927;52.472;13.108;2024-03-22T00:16:34;6.70;99.90
9776;DHT22;4927;52.472;13.108;2024-03-22T00:17:35;6.70;99.90
9776;DHT22;4927;52.472;13.108;2024-03-22T00:18:37;6.70;99.90
9776;DHT22;4927;52.472;13.108;2024-03-22T00:19:39;6.70;99.90
9776;DHT22;4927;52.472;13.108;2024-03-22T00:20:41;6.70;99.90
9776;DHT22;4927;52.472;13.108;2024-03-22T00:21:43;6.80;99.90
9776;DHT22;4927;52.472;13.108;2024-03-22T00:22:45;6.70;99.90
9776;DHT22;4927;52.472;13.108;2024-03-22T00:23:47;6.80;99.90
9776;DHT22;4927;52.472;13.108;2024-03-22T00:24:49;6.70;99.90
9776;DHT22;4927;52.472;13.108;2024-03-22T00:25:51;6.80;99.90
9776;DHT22;4927;52.472;13.108;2024-03-22T00:26:53;6.70;99.90
9776;DHT22;4927;52.472;13.108;2024-03-22T00:27:55;6.80;99.90
9776;DHT22;4927;52.472;13.108;2024-03-22T00:28:56;6.80;99.90
9776;DHT22;4927;52.472;13.108;2024-03-22T00:29:58;6.80;99.90
9776;DHT22;4927;52.472;13.108;2024-03-22T00:31:00;6.80;99.90
9776;DHT22;4927;52.472;13.108;2024-03-22T00:32:01;6.80;99.90
9776;DHT22;4927;52.472;13.108;2024-03-22T00:33:03;6.80;99.90
9776;DHT22;4927;52.472;13.108;2024-03-22T00:34:04;6.80;99.90
9776;DHT22;4927;52.472;13.108;2024-03-22T00:35:07;6.80;99.90
9776;DHT22;4927;52.472;13.108;2024-03-22T00:36:09;6.80;99.90
9776;DHT22;4927;52.472;13.108;2024-03-22T00:37:10;6.80;99.90
9776;DHT22;4927;52.472;13.108;2024-03-22T00:38:12;6.80;99.90
9776;DHT22;4927;52.472;13.108;2024-03-22T00:39:14;6.80;99.90
9776;DHT22;4927;52.472;13.108;2024-03-22T00:40:17;6.80;99.90
9776;DHT22;4927;52.472;13.108;2024-03-22T00:41:18;6.80;99.90
9776;DHT22;4927;52.472;13.108;2024-03-22T00:42:20;6.80;99.90
9776;DHT22;4927;52.472;13.108;2024-03-22T00:43:23;6.80;99.90
9776;DHT22;4927;52.472;13.108;2024-03-22T00:44:24;6.80;99.90
9776;DHT22;4927;52.472;13.108;2024-03-22T00:45:26;6.80;99.90
9776;DHT22;4927;52.472;13.108;2024-03-22T00:46:28;6.80;99.90
9776;DHT22;4927;52.472;13.108;2024-03-22T00:47:30;6.80;99.90
9776;DHT22;4927;52.472;13.108;2024-03-22T00:48:31;6.80;99.90
9776;DHT22;4927;52.472;13.108;2024-03-22T00:49:33;6.70;99.90
9776;DHT22;4927;52.472;13.108;2024-03-22T00:50:34;6.70;99.90
9776;DHT22;4927;52.472;13.108;2024-03-22T00:51:37;6.80;99.90
9776;DHT22;4927;52.472;13.108;2024-03-22T00:52:38;6.70;99.90
9776;DHT22;4927;52.472;13.108;2024-03-22T00:53:40;6.70;99.90
9776;DHT22;4927;52.472;13.108;2024-03-22T00:54:41;6.70;99.90
9776;DHT22;4927;52.472;13.108;2024-03-22T00:55:43;6.70;99.90
9776;DHT22;4927;52.472;13.108;2024-03-22T00:56:44;6.70;99.90
9776;DHT22;4927;52.472;13.108;2024-03-22T00:57:46;6.70;99.90
9776;DHT22;4927;52.472;13.108;2024-03-22T00:58:48;6.70;99.90
9776;DHT22;4927;52.472;13.108;2024-03-22T00:59:50;6.70;99.90
9776;DHT22;4927;52.472;13.108;2024-03-22T01:00:51;6.70;99.90
9776;DHT22;4927;52.472;13.108;2024-03-22T01:01:53;6.60;99.90
9776;DHT22;4927;52.472;13.108;2024-03-22T01:02:55;6.60;99.90
9776;DHT22;4927;52.472;13.108;2024-03-22T01:03:57;6.60;99.90
9776;DHT22;4927;52.472;13.108;2024-03-22T01:04:58;6.60;99.90
9776;DHT22;4927;52.472;13.108;2024-03-22T01:06:02;6.60;99.90
9776;DHT22;4927;52.472;13.108;2024-03-22T01:07:04;6.60;99.90
9776;DHT22;4927;52.472;13.108;2024-03-22T01:08:06;6.60;99.90
9776;DHT22;4927;52.472;13.108;2024-03-22T01:09:08;6.60;99.90
9776;DHT22;4927;52.472;13.108;2024-03-22T01:10:10;6.60;99.90
9776;DHT22;4927;52.472;13.108;2024-03-22T01:11:11;6.60;99.90
9776;DHT22;4927;52.472;13.108;2024-03-22T01:12:13;6.60;99.90
9776;DHT22;4927;52.472;13.108;2024-03-22T01:13:14;6.60;99.90
9776;DHT22;4927;52.472;13.108;2024-03-22T01:14:16;6.60;99.90
9776;DHT22;4927;52.472;13.108;2024-03-22T01:15:17;6.60;99.90
9776;DHT22;4927;52.472;13.108;2024-03-22T01:16:26;6.60;99.90
9776;DHT22;4927;52.472;13.108;2024-03-22T01:17:28;6.60;99.90
9776;DHT22;4927;52.472;13.108;2024-03-22T01:18:30;6.60;99.90
9776;DHT22;4927;52.472;13.108;2024-03-22T01:19:32;6.60;99.90
9776;DHT22;4927;52.472;13.108;2024-03-22T01:20:34;6.60;99.90
9776;DHT22;4927;52.472;13.108;2024-03-22T01:21:36;6.60;99.90
9776;DHT22;4927;52.472;13.108;2024-03-22T01:22:37;6.60;99.90
9776;DHT22;4927;52.472;13.108;2024-03-22T01:23:39;6.60;99.90
9776;DHT22;4927;52.472;13.108;2024-03-22T01:24:41;6.60;99.90
9776;DHT22;4927;52.472;13.108;2024-03-22T01:25:44;6.60;99.90
9776;DHT22;4927;52.472;13.108;2024-03-22T01:26:45;6.60;99.90
9776;DHT22;4927;52.472;13.108;2024-03-22T01:27:47;6.70;99.90
9776;DHT22;4927;52.472;13.108;2024-03-22T01:28:49;6.60;99.90
9776;DHT22;4927;52.472;13.108;2024-03-22T01:29:51;6.70;99.90
9776;DHT22;4927;52.472;13.108;2024-03-22T01:30:53;6.70;99.90
9776;DHT22;4927;52.472;13.108;2024-03-22T01:31:56;6.70;99.90
9776;DHT22;4927;52.472;13.108;2024-03-22T01:32:58;6.70;99.90
9776;DHT22;4927;52.472;13.108;2024-03-22T01:33:59;6.70;99.90
9776;DHT22;4927;52.472;13.108;2024-03-22T01:35:01;6.70;99.90
9776;DHT22;4927;52.472;13.108;2024-03-22T01:36:03;6.70;99.90
9776;DHT22;4927;52.472;13.108;2024-03-22T01:37:05;6.70;99.90
9776;DHT22;4927;52.472;13.108;2024-03-22T01:38:07;6.70;99.90
9776;DHT22;4927;52.472;13.108;2024-03-22T01:39:08;6.70;99.90
9776;DHT22;4927;52.472;13.108;2024-03-22T01:40:11;6.70;99.90
9776;DHT22;4927;52.472;13.108;2024-03-22T01:41:12;6.70;99.90
9776;DHT22;4927;52.472;13.108;2024-03-22T01:42:14;6.80;99.90
9776;DHT22;4927;52.472;13.108;2024-03-22T01:43:16;6.80;99.90
9776;DHT22;4927;52.472;13.108;2024-03-22T01:44:18;6.80;99.90
9776;DHT22;4927;52.472;13.108;2024-03-22T01:45:19;6.80;99.90
9776;DHT22;4927;52.472;13.108;2024-03-22T01:46:21;6.80;99.90
9776;DHT22;4927;52.472;13.108;2024-03-22T01:47:23;6.80;99.90
9776;DHT22;4927;52.472;13.108;2024-03-22T01:48:25;6.80;99.90
9776;DHT22;4927;52.472;13.108;2024-03-22T01:49:26;6.80;99.90
9776;DHT22;4927;52.472;13.108;2024-03-22T01:50:28;6.80;99.90
9776;DHT22;4927;52.472;13.108;2024-03-22T01:51:30;6.80;99.90
9776;DHT22;4927;52.472;13.108;2024-03-22T01:52:32;6.80;99.90
9776;DHT22;4927;52.472;13.108;2024-03-22T01:53:34;6.80;99.90
9776;DHT22;4927;52.472;13.108;2024-03-22T01:54:36;6.90;99.90
9776;DHT22;4927;52.472;13.108;2024-03-22T01:55:37;6.80;99.90
9776;DHT22;4927;52.472;13.108;2024-03-22T01:56:39;6.80;99.90
9776;DHT22;4927;52.472;13.108;2024-03-22T01:57:41;6.90;99.90
9776;DHT22;4927;52.472;13.108;2024-03-22T01:58:42;6.90;99.90
9776;DHT22;4927;52.472;13.108;2024-03-22T01:59:45;6.90;99.90
9776;DHT22;4927;52.472;13.108;2024-03-22T02:00:46;6.90;99.90
9776;DHT22;4927;52.472;13.108;2024-03-22T02:01:48;6.90;99.90
9776;DHT22;4927;52.472;13.108;2024-03-22T02:02:49;6.90;99.90
9776;DHT22;4927;52.472;13.108;2024-03-22T02:03:51;6.90;99.90
9776;DHT22;4927;52.472;13.108;2024-03-22T02:04:52;6.90;99.90
9776;DHT22;4927;52.472;13.108;2024-03-22T02:05:55;6.90;99.90
9776;DHT22;4927;52.472;13.108;2024-03-22T02:06:55;6.90;99.90
9776;DHT22;4927;52.472;13.108;2024-03-22T02:07:58;6.90;99.90
9776;DHT22;4927;52.472;13.108;2024-03-22T02:08:59;6.90;99.90
9776;DHT22;4927;52.472;13.108;2024-03-22T02:10:01;6.90;99.90
9776;DHT22;4927;52.472;13.108;2024-03-22T02:11:02;6.90;99.90
9776;DHT22;4927;52.472;13.108;2024-03-22T02:12:04;6.90;99.90
9776;DHT22;4927;52.472;13.108;2024-03-22T02:13:07;6.90;99.90
9776;DHT22;4927;52.472;13.108;2024-03-22T02:14:08;6.90;99.90
9776;DHT22;4927;52.472;13.108;2024-03-22T02:15:10;7.00;99.90
9776;DHT22;4927;52.472;13.108;2024-03-22T02:16:11;6.90;99.90
9776;DHT22;4927;52.472;13.108;2024-03-22T02:17:13;6.90;99.90
9776;DHT22;4927;52.472;13.108;2024-03-22T02:18:14;6.90;99.90
9776;DHT22;4927;52.472;13.108;2024-03-22T02:19:16;6.90;99.90
9776;DHT22;4927;52.472;13.108;2024-03-22T02:20:18;7.00;99.90
9776;DHT22;4927;52.472;13.108;2024-03-22T02:21:20;7.00;99.90
9776;DHT22;4927;52.472;13.108;2024-03-22T02:22:21;7.00;99.90
9776;DHT22;4927;52.472;13.108;2024-03-22T02:24:36;7.00;99.90
9776;DHT22;4927;52.472;13.108;2024-03-22T02:25:38;7.00;99.90
9776;DHT22;4927;52.472;13.108;2024-03-22T02:26:40;7.00;99.90
9776;DHT22;4927;52.472;13.108;2024-03-22T02:27:43;7.00;99.90
9776;DHT22;4927;52.472;13.108;2024-03-22T02:28:44;7.00;99.90
9776;DHT22;4927;52.472;13.108;2024-03-22T02:29:46;7.00;99.90
9776;DHT22;4927;52.472;13.108;2024-03-22T02:30:49;7.00;99.90
9776;DHT22;4927;52.472;13.108;2024-03-22T02:31:50;7.00;99.90
9776;DHT22;4927;52.472;13.108;2024-03-22T02:32:52;7.00;99.90
9776;DHT22;4927;52.472;13.108;2024-03-22T02:33:53;7.00;99.90
9776;DHT22;4927;52.472;13.108;2024-03-22T02:35:03;7.00;99.90
9776;DHT22;4927;52.472;13.108;2024-03-22T02:36:05;7.00;99.90
9776;DHT22;4927;52.472;13.108;2024-03-22T02:37:07;7.00;99.90
9776;DHT22;4927;52.472;13.108;2024-03-22T02:38:08;7.00;99.90
9776;DHT22;4927;52.472;13.108;2024-03-22T02:39:10;7.00;99.90
9776;DHT22;4927;52.472;13.108;2024-03-22T02:40:12;7.00;99.90
9776;DHT22;4927;52.472;13.108;2024-03-22T02:41:14;7.00;99.90
9776;DHT22;4927;52.472;13.108;2024-03-22T02:42:15;7.00;99.90
9776;DHT22;4927;52.472;13.108;2024-03-22T02:43:17;7.00;99.90
9776;DHT22;4927;52.472;13.108;2024-03-22T02:44:19;7.00;99.90
9776;DHT22;4927;52.472;13.108;2024-03-22T02:45:21;7.00;99.90
9776;DHT22;4927;52.472;13.108;2024-03-22T02:46:22;7.00;99.90
9776;DHT22;4927;52.472;13.108;2024-03-22T02:47:25;7.10;99.90
9776;DHT22;4927;52.472;13.108;2024-03-22T02:48:26;7.00;99.90
9776;DHT22;4927;52.472;13.108;2024-03-22T02:49:29;7.10;99.90
9776;DHT22;4927;52.472;13.108;2024-03-22T02:50:33;7.00;99.90
9776;DHT22;4927;52.472;13.108;2024-03-22T02:51:34;7.10;99.90
9776;DHT22;4927;52.472;13.108;2024-03-22T02:52:37;7.10;99.90
9776;DHT22;4927;52.472;13.108;2024-03-22T02:53:38;7.10;99.90
9776;DHT22;4927;52.472;13.108;2024-03-22T02:54:40;7.00;99.90
9776;DHT22;4927;52.472;13.108;2024-03-22T02:55:41;7.00;99.90
9776;DHT22;4927;52.472;13.108;2024-03-22T02:56:43;7.00;99.90
9776;DHT22;4927;52.472;13.108;2024-03-22T02:57:44;7.00;99.90
9776;DHT22;4927;52.472;13.108;2024-03-22T02:58:46;7.10;99.90
9776;DHT22;4927;52.472;13.108;2024-03-22T02:59:47;7.10;99.90
9776;DHT22;4927;52.472;13.108;2024-03-22T03:00:49;7.10;99.90
9776;DHT22;4927;52.472;13.108;2024-03-22T03:01:51;7.10;99.90
9776;DHT22;4927;52.472;13.108;2024-03-22T03:02:53;7.00;99.90
9776;DHT22;4927;52.472;13.108;2024-03-22T03:03:55;7.10;99.90
9776;DHT22;4927;52.472;13.108;2024-03-22T03:04:57;7.00;99.90
9776;DHT22;4927;52.472;13.108;2024-03-22T03:05:58;7.10;99.90
9776;DHT22;4927;52.472;13.108;2024-03-22T03:07:00;7.10;99.90
9776;DHT22;4927;52.472;13.108;2024-03-22T03:08:01;7.10;99.90
9776;DHT22;4927;52.472;13.108;2024-03-22T03:09:03;7.10;99.90
9776;DHT22;4927;52.472;13.108;2024-03-22T03:10:05;7.10;99.90
9776;DHT22;4927;52.472;13.108;2024-03-22T03:11:07;7.10;99.90
9776;DHT22;4927;52.472;13.108;2024-03-22T03:12:08;7.10;99.90
9776;DHT22;4927;52.472;13.108;2024-03-22T03:13:10;7.10;99.90
9776;DHT22;4927;52.472;13.108;2024-03-22T03:14:11;7.10;99.90
9776;DHT22;4927;52.472;13.108;2024-03-22T03:15:13;7.10;99.90
9776;DHT22;4927;52.472;13.108;2024-03-22T03:16:14;7.10;99.90
9776;DHT22;4927;52.472;13.108;2024-03-22T03:17:16;7.10;99.90
9776;DHT22;4927;52.472;13.108;2024-03-22T03:18:17;7.10;99.90
9776;DHT22;4927;52.472;13.108;2024-03-22T03:19:19;7.10;99.90
9776;DHT22;4927;52.472;13.108;2024-03-22T03:20:20;7.10;99.90
9776;DHT22;4927;52.472;13.108;2024-03-22T03:21:22;7.10;99.90
9776;DHT22;4927;52.472;13.108;2024-03-22T03:22:24;7.10;99.90
9776;DHT22;4927;52.472;13.108;2024-03-22T03:23:26;7.10;99.90
9776;DHT22;4927;52.472;13.108;2024-03-22T03:24:27;7.10;99.90
9776;DHT22;4927;52.472;13.108;2024-03-22T03:25:29;7.10;99.90
9776;DHT22;4927;52.472;13.108;2024-03-22T03:26:31;7.10;99.90
9776;DHT22;4927;52.472;13.108;2024-03-22T03:27:34;7.10;99.90
9776;DHT22;4927;52.472;13.108;2024-03-22T03:28:36;7.20;99.90
9776;DHT22;4927;52.472;13.108;2024-03-22T03:29:38;7.20;99.90
9776;DHT22;4927;52.472;13.108;2024-03-22T03:30:40;7.10;99.90
9776;DHT22;4927;52.472;13.108;2024-03-22T03:31:42;7.20;99.90
9776;DHT22;4927;52.472;13.108;2024-03-22T03:32:44;7.10;99.90
9776;DHT22;4927;52.472;13.108;2024-03-22T03:33:45;7.10;99.90
9776;DHT22;4927;52.472;13.108;2024-03-22T03:34:47;7.10;99.90
9776;DHT22;4927;52.472;13.108;2024-03-22T03:35:48;7.20;99.90
9776;DHT22;4927;52.472;13.108;2024-03-22T03:36:50;7.20;99.90
9776;DHT22;4927;52.472;13.108;2024-03-22T03:37:51;7.20;99.90
9776;DHT22;4927;52.472;13.108;2024-03-22T03:38:53;7.20;99.90
9776;DHT22;4927;52.472;13.108;2024-03-22T03:39:54;7.10;99.90
9776;DHT22;4927;52.472;13.108;2024-03-22T03:40:57;7.20;99.90
9776;DHT22;4927;52.472;13.108;2024-03-22T03:41:59;7.20;99.90
9776;DHT22;4927;52.472;13.108;2024-03-22T03:43:00;7.20;99.90
9776;DHT22;4927;52.472;13.108;2024-03-22T03:44:02;7.20;99.90
9776;DHT22;4927;52.472;13.108;2024-03-22T03:45:05;7.20;99.90
9776;DHT22;4927;52.472;13.108;2024-03-22T03:46:07;7.20;99.90
9776;DHT22;4927;52.472;13.108;2024-03-22T03:47:08;7.20;99.90
9776;DHT22;4927;52.472;13.108;2024-03-22T03:48:10;7.20;99.90
9776;DHT22;4927;52.472;13.108;2024-03-22T03:49:11;7.20;99.90
9776;DHT22;4927;52.472;13.108;2024-03-22T03:50:13;7.20;99.90
9776;DHT22;4927;52.472;13.108;2024-03-22T03:51:15;7.20;99.90
9776;DHT22;4927;52.472;13.108;2024-03-22T03:52:16;7.20;99.90
9776;DHT22;4927;52.472;13.108;2024-03-22T03:53:18;7.20;99.90
9776;DHT22;4927;52.472;13.108;2024-03-22T03:54:19;7.20;99.90
9776;DHT22;4927;52.472;13.108;2024-03-22T03:55:22;7.20;99.90
9776;DHT22;4927;52.472;13.108;2024-03-22T03:56:23;7.20;99.90
9776;DHT22;4927;52.472;13.108;2024-03-22T03:57:25;7.20;99.90
9776;DHT22;4927;52.472;13.108;2024-03-22T03:58:26;7.30;99.90
9776;DHT22;4927;52.472;13.108;2024-03-22T03:59:28;7.20;99.90
9776;DHT22;4927;52.472;13.108;2024-03-22T04:00:30;7.30;99.90
9776;DHT22;4927;52.472;13.108;2024-03-22T04:01:32;7.30;99.90
9776;DHT22;4927;52.472;13.108;2024-03-22T04:02:34;7.30;99.90
9776;DHT22;4927;52.472;13.108;2024-03-22T04:03:36;7.30;99.90
9776;DHT22;4927;52.472;13.108;2024-03-22T04:04:37;7.30;99.90
9776;DHT22;4927;52.472;13.108;2024-03-22T04:05:39;7.30;99.90
9776;DHT22;4927;52.472;13.108;2024-03-22T04:06:41;7.30;99.90
9776;DHT22;4927;52.472;13.108;2024-03-22T04:07:46;7.30;99.90
9776;DHT22;4927;52.472;13.108;2024-03-22T04:08:44;7.30;99.90
9776;DHT22;4927;52.472;13.108;2024-03-22T04:09:46;7.30;99.90
9776;DHT22;4927;52.472;13.108;2024-03-22T04:10:53;7.30;99.90
9776;DHT22;4927;52.472;13.108;2024-03-22T04:11:54;7.30;99.90
9776;DHT22;4927;52.472;13.108;2024-03-22T04:12:55;7.30;99.90
9776;DHT22;4927;52.472;13.108;2024-03-22T04:13:57;7.30;99.90
9776;DHT22;4927;52.472;13.108;2024-03-22T04:14:58;7.30;99.90
9776;DHT22;4927;52.472;13.108;2024-03-22T04:16:01;7.30;99.90
9776;DHT22;4927;52.472;13.108;2024-03-22T04:17:02;7.30;99.90
9776;DHT22;4927;52.472;13.108;2024-03-22T04:18:04;7.30;99.90
9776;DHT22;4927;52.472;13.108;2024-03-22T04:19:06;7.30;99.90
9776;DHT22;4927;52.472;13.108;2024-03-22T04:20:08;7.30;99.90
9776;DHT22;4927;52.472;13.108;2024-03-22T04:21:10;7.30;99.90
9776;DHT22;4927;52.472;13.108;2024-03-22T04:22:11;7.40;99.90
9776;DHT22;4927;52.472;13.108;2024-03-22T04:23:13;7.30;99.90
9776;DHT22;4927;52.472;13.108;2024-03-22T04:24:16;7.40;99.90
9776;DHT22;4927;52.472;13.108;2024-03-22T04:25:17;7.40;99.90
9776;DHT22;4927;52.472;13.108;2024-03-22T04:26:19;7.40;99.90
9776;DHT22;4927;52.472;13.108;2024-03-22T04:27:20;7.40;99.90
9776;DHT22;4927;52.472;13.108;2024-03-22T04:28:22;7.40;99.90
9776;DHT22;4927;52.472;13.108;2024-03-22T04:29:23;7.40;99.90
9776;DHT22;4927;52.472;13.108;2024-03-22T04:30:25;7.40;99.90
9776;DHT22;4927;52.472;13.108;2024-03-22T04:31:27;7.40;99.90
9776;DHT22;4927;52.472;13.108;2024-03-22T04:32:28;7.40;99.90
9776;DHT22;4927;52.472;13.108;2024-03-22T04:33:30;7.40;99.90
9776;DHT22;4927;52.472;13.108;2024-03-22T04:34:31;7.40;99.90
9776;DHT22;4927;52.472;13.108;2024-03-22T04:35:33;7.40;99.90
9776;DHT22;4927;52.472;13.108;2024-03-22T04:36:34;7.40;99.90
9776;DHT22;4927;52.472;13.108;2024-03-22T04:37:36;7.40;99.90
9776;DHT22;4927;52.472;13.108;2024-03-22T04:38:38;7.40;99.90
9776;DHT22;4927;52.472;13.108;2024-03-22T04:39:40;7.40;99.90
9776;DHT22;4927;52.472;13.108;2024-03-22T04:40:41;7.40;99.90
9776;DHT22;4927;52.472;13.108;2024-03-22T04:41:42;7.40;99.90
9776;DHT22;4927;52.472;13.108;2024-03-22T04:42:45;7.50;99.90
9776;DHT22;4927;52.472;13.108;2024-03-22T04:43:47;7.50;99.90
9776;DHT22;4927;52.472;13.108;2024-03-22T04:44:50;7.50;99.90
9776;DHT22;4927;52.472;13.108;2024-03-22T04:45:51;7.40;99.90
9776;DHT22;4927;52.472;13.108;2024-03-22T04:46:53;7.40;99.90
9776;DHT22;4927;52.472;13.108;2024-03-22T04:47:54;7.40;99.90
9776;DHT22;4927;52.472;13.108;2024-03-22T04:48:57;7.50;99.90
9776;DHT22;4927;52.472;13.108;2024-03-22T04:49:59;7.50;99.90
9776;DHT22;4927;52.472;13.108;2024-03-22T04:51:01;7.50;99.90
9776;DHT22;4927;52.472;13.108;2024-03-22T04:52:03;7.50;99.90
9776;DHT22;4927;52.472;13.108;2024-03-22T04:53:04;7.50;99.90
9776;DHT22;4927;52.472;13.108;2024-03-22T04:54:06;7.50;99.90
9776;DHT22;4927;52.472;13.108;2024-03-22T04:55:08;7.50;99.90
9776;DHT22;4927;52.472;13.108;2024-03-22T04:56:09;7.50;99.90
9776;DHT22;4927;52.472;13.108;2024-03-22T04:57:11;7.50;99.90
9776;DHT22;4927;52.472;13.108;2024-03-22T04:58:13;7.50;99.90
9776;DHT22;4927;52.472;13.108;2024-03-22T04:59:15;7.50;99.90
9776;DHT22;4927;52.472;13.108;2024-03-22T05:00:17;7.50;99.90
9776;DHT22;4927;52.472;13.108;2024-03-22T05:01:19;7.50;99.90
9776;DHT22;4927;52.472;13.108;2024-03-22T05:02:21;7.50;99.90
9776;DHT22;4927;52.472;13.108;2024-03-22T05:03:23;7.50;99.90
9776;DHT22;4927;52.472;13.108;2024-03-22T05:04:24;7.50;99.90
9776;DHT22;4927;52.472;13.108;2024-03-22T05:05:26;7.50;99.90
9776;DHT22;4927;52.472;13.108;2024-03-22T05:06:27;7.50;99.90
9776;DHT22;4927;52.472;13.108;2024-03-22T05:07:29;7.50;99.90
9776;DHT22;4927;52.472;13.108;2024-03-22T05:08:30;7.50;99.90
9776;DHT22;4927;52.472;13.108;2024-03-22T05:09:32;7.50;99.90
9776;DHT22;4927;52.472;13.108;2024-03-22T05:10:33;7.50;99.90
9776;DHT22;4927;52.472;13.108;2024-03-22T05:11:36;7.60;99.90
9776;DHT22;4927;52.472;13.108;2024-03-22T05:12:37;7.50;99.90
9776;DHT22;4927;52.472;13.108;2024-03-22T05:13:39;7.50;99.90
9776;DHT22;4927;52.472;13.108;2024-03-22T05:14:41;7.50;99.90
9776;DHT22;4927;52.472;13.108;2024-03-22T05:15:43;7.50;99.90
9776;DHT22;4927;52.472;13.108;2024-03-22T05:16:44;7.60;99.90
9776;DHT22;4927;52.472;13.108;2024-03-22T05:17:46;7.50;99.90
9776;DHT22;4927;52.472;13.108;2024-03-22T05:18:48;7.60;99.90
9776;DHT22;4927;52.472;13.108;2024-03-22T05:19:50;7.50;99.90
9776;DHT22;4927;52.472;13.108;2024-03-22T05:20:52;7.50;99.90
9776;DHT22;4927;52.472;13.108;2024-03-22T05:21:53;7.60;99.90
9776;DHT22;4927;52.472;13.108;2024-03-22T05:22:55;7.50;99.90
9776;DHT22;4927;52.472;13.108;2024-03-22T05:23:56;7.50;99.90
9776;DHT22;4927;52.472;13.108;2024-03-22T05:24:58;7.50;99.90
9776;DHT22;4927;52.472;13.108;2024-03-22T05:25:59;7.60;99.90
9776;DHT22;4927;52.472;13.108;2024-03-22T05:27:01;7.60;99.90
9776;DHT22;4927;52.472;13.108;2024-03-22T05:28:03;7.60;99.90
9776;DHT22;4927;52.472;13.108;2024-03-22T05:29:04;7.60;99.90
9776;DHT22;4927;52.472;13.108;2024-03-22T05:30:08;7.60;99.90
9776;DHT22;4927;52.472;13.108;2024-03-22T05:31:11;7.60;99.90
9776;DHT22;4927;52.472;13.108;2024-03-22T05:32:12;7.60;99.90
9776;DHT22;4927;52.472;13.108;2024-03-22T05:33:14;7.60;99.90
9776;DHT22;4927;52.472;13.108;2024-03-22T05:34:17;7.60;99.90
9776;DHT22;4927;52.472;13.108;2024-03-22T05:35:19;7.60;99.90
9776;DHT22;4927;52.472;13.108;2024-03-22T05:36:21;7.60;99.90
9776;DHT22;4927;52.472;13.108;2024-03-22T05:37:23;7.60;99.90
9776;DHT22;4927;52.472;13.108;2024-03-22T05:38:24;7.70;99.90
9776;DHT22;4927;52.472;13.108;2024-03-22T05:39:27;7.70;99.90
9776;DHT22;4927;52.472;13.108;2024-03-22T05:40:29;7.70;99.90
9776;DHT22;4927;52.472;13.108;2024-03-22T05:41:30;7.70;99.90
9776;DHT22;4927;52.472;13.108;2024-03-22T05:42:33;7.70;99.90
9776;DHT22;4927;52.472;13.108;2024-03-22T05:43:34;7.70;99.90
9776;DHT22;4927;52.472;13.108;2024-03-22T05:44:36;7.70;99.90
9776;DHT22;4927;52.472;13.108;2024-03-22T05:45:37;7.70;99.90
9776;DHT22;4927;52.472;13.108;2024-03-22T05:46:39;7.70;99.90
9776;DHT22;4927;52.472;13.108;2024-03-22T05:47:41;7.80;99.90
9776;DHT22;4927;52.472;13.108;2024-03-22T05:48:43;7.80;99.90
9776;DHT22;4927;52.472;13.108;2024-03-22T05:49:46;7.80;99.90
9776;DHT22;4927;52.472;13.108;2024-03-22T05:50:47;7.80;99.90
9776;DHT22;4927;52.472;13.108;2024-03-22T05:51:48;7.80;99.90
9776;DHT22;4927;52.472;13.108;2024-03-22T05:52:50;7.80;99.90
9776;DHT22;4927;52.472;13.108;2024-03-22T05:53:51;7.80;99.90
9776;DHT22;4927;52.472;13.108;2024-03-22T05:54:53;7.80;99.90
9776;DHT22;4927;52.472;13.108;2024-03-22T05:55:55;7.90;99.90
9776;DHT22;4927;52.472;13.108;2024-03-22T05:56:56;7.80;99.90
9776;DHT22;4927;52.472;13.108;2024-03-22T05:57:58;7.90;99.90
9776;DHT22;4927;52.472;13.108;2024-03-22T05:58:59;7.90;99.90
9776;DHT22;4927;52.472;13.108;2024-03-22T06:00:01;7.90;99.90
9776;DHT22;4927;52.472;13.108;2024-03-22T06:01:02;7.90;99.90
9776;DHT22;4927;52.472;13.108;2024-03-22T06:02:04;7.90;99.90
9776;DHT22;4927;52.472;13.108;2024-03-22T06:03:06;8.00;99.90
9776;DHT22;4927;52.472;13.108;2024-03-22T06:04:08;8.00;99.90
9776;DHT22;4927;52.472;13.108;2024-03-22T06:05:10;8.00;99.90
9776;DHT22;4927;52.472;13.108;2024-03-22T06:06:12;8.00;99.90
9776;DHT22;4927;52.472;13.108;2024-03-22T06:07:14;8.00;99.90
9776;DHT22;4927;52.472;13.108;2024-03-22T06:08:16;8.00;99.90
9776;DHT22;4927;52.472;13.108;2024-03-22T06:09:17;8.00;99.90
9776;DHT22;4927;52.472;13.108;2024-03-22T06:10:19;8.00;99.90
9776;DHT22;4927;52.472;13.108;2024-03-22T06:11:20;8.00;99.90
9776;DHT22;4927;52.472;13.108;2024-03-22T06:12:23;8.00;99.90
9776;DHT22;4927;52.472;13.108;2024-03-22T06:13:25;8.00;99.90
9776;DHT22;4927;52.472;13.108;2024-03-22T06:14:26;8.00;99.90
9776;DHT22;4927;52.472;13.108;2024-03-22T06:15:28;8.00;99.90
9776;DHT22;4927;52.472;13.108;2024-03-22T06:16:30;8.10;99.90
9776;DHT22;4927;52.472;13.108;2024-03-22T06:17:32;8.00;99.90
9776;DHT22;4927;52.472;13.108;2024-03-22T06:18:33;8.10;99.90
9776;DHT22;4927;52.472;13.108;2024-03-22T06:19:35;8.00;99.90
9776;DHT22;4927;52.472;13.108;2024-03-22T06:20:36;8.10;99.90
9776;DHT22;4927;52.472;13.108;2024-03-22T06:21:38;8.10;99.90
9776;DHT22;4927;52.472;13.108;2024-03-22T06:22:40;8.10;99.90
9776;DHT22;4927;52.472;13.108;2024-03-22T06:23:42;8.10;99.90
9776;DHT22;4927;52.472;13.108;2024-03-22T06:24:44;8.10;99.90
9776;DHT22;4927;52.472;13.108;2024-03-22T06:25:51;8.10;99.90
9776;DHT22;4927;52.472;13.108;2024-03-22T06:26:52;8.10;99.90
9776;DHT22;4927;52.472;13.108;2024-03-22T06:27:54;8.10;99.90
9776;DHT22;4927;52.472;13.108;2024-03-22T06:28:55;8.10;99.90
9776;DHT22;4927;52.472;13.108;2024-03-22T06:29:57;8.10;99.90
9776;DHT22;4927;52.472;13.108;2024-03-22T06:30:59;8.10;99.90
9776;DHT22;4927;52.472;13.108;2024-03-22T06:32:00;8.10;99.90
9776;DHT22;4927;52.472;13.108;2024-03-22T06:33:03;8.20;99.90
9776;DHT22;4927;52.472;13.108;2024-03-22T06:34:04;8.10;99.90
9776;DHT22;4927;52.472;13.108;2024-03-22T06:35:07;8.20;99.90
9776;DHT22;4927;52.472;13.108;2024-03-22T06:36:08;8.20;99.90
9776;DHT22;4927;52.472;13.108;2024-03-22T06:37:11;8.20;99.90
9776;DHT22;4927;52.472;13.108;2024-03-22T06:38:13;8.20;99.90
9776;DHT22;4927;52.472;13.108;2024-03-22T06:39:14;8.20;99.90
9776;DHT22;4927;52.472;13.108;2024-03-22T06:40:16;8.20;99.90
9776;DHT22;4927;52.472;13.108;2024-03-22T06:41:18;8.30;99.90
9776;DHT22;4927;52.472;13.108;2024-03-22T06:42:19;8.30;99.90
9776;DHT22;4927;52.472;13.108;2024-03-22T06:43:21;8.30;99.90
9776;DHT22;4927;52.472;13.108;2024-03-22T06:44:22;8.40;99.90